AirNav   TITAN Aviation Fuels
 
 572 users online  

08NR Bell Mountain Airport
Zirconia, North Carolina, USA

GOING TO ZIRCONIA?


FAA INFORMATION EFFECTIVE 03 NOVEMBER 2022

Location

FAA Identifier: 08NR
Lat/Long: 35-13-04.0000N 082-25-34.0000W
35-13.066667N 082-25.566667W
35.2177778,-82.4261111
(estimated)
Elevation: 2150 ft. / 655 m (estimated)
From city: 1 mile SW of ZIRCONIA, NC
Time zone: UTC -5 (UTC -4 during Daylight Saving Time)
Zip code: 28790

Airport Operations

Airport use: Private use. Permission required prior to landing
Activation date: 06/2010
Control tower: no
ARTCC: ATLANTA CENTER
FSS: RALEIGH FLIGHT SERVICE STATION
Attendance: UNATNDD
Wind indicator: yes
Segmented circle: no

Airport Communications

WX ASOS at AVL (14 nm NW): PHONE 828-681-0131

Nearby radio navigation aids

VOR radial/distance  VOR name  Freq  Var
SUGr216/13.7SUGARLOAF MOUNTAIN VORTAC112.2002W
SPAr296/26.9SPARTANBURG VORTAC115.7002W

 
NDB name  Hdg/Dist  Freq  Var  ID
BROAD RIVER153/4.037907WBRA -... .-. .-

Airport Services

Runway Information

Runway 2/20

Dimensions: 1400 x 40 ft. / 427 x 12 m
Surface: turf, in good condition
RUNWAY 2  RUNWAY 20
Traffic pattern: leftleft
Obstructions: none20 ft. trees, 200 ft. from runway

Airport Ownership and Management from official FAA records

Ownership: Privately-owned
Owner: BELL MOUNTAIN, LLC
PO BOX 8
TUXEDO, NC 28784
Phone 828-243-4590
Manager: FRANK BELL
PO BOX 8
TUXEDO, NC 28784
Phone 828-243-4590

Airport Operational Statistics

Aircraft based on the field: 1
Single engine airplanes: 1
    

Additional Remarks

OWNER DESIRES ARPT NOT BE CHARTED.
FOR CD CTC ATLANTA ARTCC AT 770-210-7692.

Instrument Procedures

There are no published instrument procedures at 08NR.

Some nearby airports with instrument procedures:

KAVL - Asheville Regional Airport (14 nm NW)
KGSP - Greenville Spartanburg International Airport (22 nm SE)
KGMU - Greenville Downtown Airport (23 nm S)
KFQD - Rutherford County Airport/Marchman Field (27 nm NE)
KGYH - Donaldson Field Airport (28 nm S)
 
Loc | Ops | Rwys | IFR | FBO | Links
Com | Nav | Svcs | Stats | Notes
Aerial photo
No photo
 
Sectional chart

 
Airport distance calculator
Flying to Bell Mountain Airport? Find the distance to fly.

From to 08NR

Sunrise and sunset
Times for 28-Nov-2022
 Local
(UTC-5)
 Zulu
(UTC)
Morning civil twilight06:5011:50
Sunrise07:1812:18
Sunset17:1722:17
Evening civil twilight17:4522:45

Current date and time
Zulu (UTC)  28-Nov-2022 12:03:47
Local (UTC-5)  28-Nov-2022 07:03:47
 
METAR
KAVL 
14nm N 
281154Z 33012KT 10SM OVC033 09/03 A2987 RMK AO2 SLP105 70025 T00890033 10117 20083 51013
KGSP 
22nm SE 
281153Z 34003KT 10SM CLR 08/06 A2986 RMK AO2 SLP106 70036 T00830056 10128 20072 53017
KGMU 
22nm S 
281153Z 23006KT 10SM CLR 11/06 A2985 RMK AO2 SLP107 70025 T01060061 10144 20106 53014
KSPA 
27nm SE 
281155Z AUTO 01003KT 10SM CLR 06/05 A2985 RMK AO2
KFQD 
27nm NE 
281155Z AUTO 06003KT 10SM CLR 06/05 A2985 RMK AO2
KGYH 
28nm S 
281147Z 23006KT 10SM CLR 09/07 A2985
TAF
KAVL 
14nm N 
281141Z 2812/2912 35007KT P6SM SCT030 TEMPO 2812/2814 BKN028 FM281700 34010G17KT P6SM SCT050 FM290100 34004KT P6SM FEW250 FM290500 00000KT P6SM FEW250 FM291100 18003KT P6SM SCT250
NOTAMs
Click for the latest NOTAMs
NOTAMs are issued by the DoD/FAA and will open in a separate window not controlled by AirNav.

 

 
 

Would you like to see your business listed on this page?

 If your business provides an interesting product or service to pilots, flight crews, aircraft, or users of the Bell Mountain Airport, you should consider listing it here.  To start the listing process, click on the button below
 
Add a business
 

Other Pages about Bell Mountain Airport

Update a link
 
Copyright © AirNav, LLC. All rights reserved. Privacy Policy  Contact